sensor_id;sensor_type;location;lat;lon;timestamp;P1;durP1;ratioP1;P2;durP2;ratioP2
5807;SDS011;2930;42.678;23.312;2022-10-18T00:01:34;6.33;;;4.37;;
5807;SDS011;2930;42.678;23.312;2022-10-18T00:04:00;6.73;;;4.83;;
5807;SDS011;2930;42.678;23.312;2022-10-18T00:06:26;5.47;;;4.27;;
5807;SDS011;2930;42.678;23.312;2022-10-18T00:08:51;7.03;;;5.03;;
5807;SDS011;2930;42.678;23.312;2022-10-18T00:11:17;4.90;;;4.40;;
5807;SDS011;2930;42.678;23.312;2022-10-18T00:13:43;6.63;;;5.47;;
5807;SDS011;2930;42.678;23.312;2022-10-18T00:16:10;5.00;;;4.50;;
5807;SDS011;2930;42.678;23.312;2022-10-18T00:18:37;5.80;;;5.30;;
5807;SDS011;2930;42.678;23.312;2022-10-18T00:21:06;5.70;;;4.67;;
5807;SDS011;2930;42.678;23.312;2022-10-18T00:23:34;7.03;;;4.63;;
5807;SDS011;2930;42.678;23.312;2022-10-18T00:26:04;7.37;;;5.13;;
5807;SDS011;2930;42.678;23.312;2022-10-18T00:28:32;6.57;;;4.87;;
5807;SDS011;2930;42.678;23.312;2022-10-18T00:31:21;8.70;;;5.00;;
5807;SDS011;2930;42.678;23.312;2022-10-18T00:33:50;7.37;;;4.73;;
5807;SDS011;2930;42.678;23.312;2022-10-18T00:36:17;6.47;;;3.93;;
5807;SDS011;2930;42.678;23.312;2022-10-18T00:38:44;5.70;;;4.13;;
5807;SDS011;2930;42.678;23.312;2022-10-18T00:41:11;8.50;;;4.63;;
5807;SDS011;2930;42.678;23.312;2022-10-18T00:46:23;4.90;;;4.33;;
5807;SDS011;2930;42.678;23.312;2022-10-18T00:48:50;6.30;;;5.00;;
5807;SDS011;2930;42.678;23.312;2022-10-18T00:51:17;4.23;;;3.83;;
5807;SDS011;2930;42.678;23.312;2022-10-18T00:53:45;5.00;;;4.17;;
5807;SDS011;2930;42.678;23.312;2022-10-18T00:56:11;3.60;;;3.27;;
5807;SDS011;2930;42.678;23.312;2022-10-18T00:58:38;4.33;;;3.77;;
5807;SDS011;2930;42.678;23.312;2022-10-18T01:01:04;5.03;;;3.77;;
5807;SDS011;2930;42.678;23.312;2022-10-18T01:03:30;4.20;;;3.83;;
5807;SDS011;2930;42.678;23.312;2022-10-18T01:05:56;7.87;;;3.50;;
5807;SDS011;2930;42.678;23.312;2022-10-18T01:17:30;4.00;;;3.70;;
5807;SDS011;2930;42.678;23.312;2022-10-18T01:25:39;5.20;;;3.47;;
5807;SDS011;2930;42.678;23.312;2022-10-18T01:31:35;4.13;;;3.70;;
5807;SDS011;2930;42.678;23.312;2022-10-18T01:33:59;4.60;;;2.40;;
5807;SDS011;2930;42.678;23.312;2022-10-18T01:36:32;4.60;;;4.30;;
5807;SDS011;2930;42.678;23.312;2022-10-18T01:39:02;3.77;;;3.43;;
5807;SDS011;2930;42.678;23.312;2022-10-18T01:41:31;3.40;;;3.10;;
5807;SDS011;2930;42.678;23.312;2022-10-18T01:43:59;3.33;;;3.13;;
5807;SDS011;2930;42.678;23.312;2022-10-18T01:46:27;4.20;;;3.80;;
5807;SDS011;2930;42.678;23.312;2022-10-18T01:48:54;3.33;;;3.13;;
5807;SDS011;2930;42.678;23.312;2022-10-18T01:51:28;5.70;;;3.77;;
5807;SDS011;2930;42.678;23.312;2022-10-18T01:53:55;3.33;;;3.03;;
5807;SDS011;2930;42.678;23.312;2022-10-18T02:10:14;3.23;;;2.53;;
5807;SDS011;2930;42.678;23.312;2022-10-18T02:12:43;2.73;;;2.63;;
5807;SDS011;2930;42.678;23.312;2022-10-18T02:15:11;5.57;;;3.70;;
5807;SDS011;2930;42.678;23.312;2022-10-18T02:17:39;5.87;;;3.90;;
5807;SDS011;2930;42.678;23.312;2022-10-18T02:20:06;4.77;;;4.17;;
5807;SDS011;2930;42.678;23.312;2022-10-18T02:22:33;4.60;;;4.20;;
5807;SDS011;2930;42.678;23.312;2022-10-18T02:25:03;4.70;;;4.10;;
5807;SDS011;2930;42.678;23.312;2022-10-18T02:27:34;5.30;;;3.63;;
5807;SDS011;2930;42.678;23.312;2022-10-18T02:30:00;4.37;;;3.73;;
5807;SDS011;2930;42.678;23.312;2022-10-18T02:37:38;6.77;;;3.70;;
5807;SDS011;2930;42.678;23.312;2022-10-18T02:40:06;4.13;;;3.77;;
5807;SDS011;2930;42.678;23.312;2022-10-18T02:42:35;3.63;;;3.37;;
5807;SDS011;2930;42.678;23.312;2022-10-18T02:45:03;7.53;;;3.47;;
5807;SDS011;2930;42.678;23.312;2022-10-18T02:47:30;3.93;;;3.60;;
5807;SDS011;2930;42.678;23.312;2022-10-18T02:49:55;3.40;;;3.10;;
5807;SDS011;2930;42.678;23.312;2022-10-18T02:52:21;3.93;;;3.00;;
5807;SDS011;2930;42.678;23.312;2022-10-18T02:54:47;3.70;;;3.37;;
5807;SDS011;2930;42.678;23.312;2022-10-18T02:57:13;3.33;;;2.97;;
5807;SDS011;2930;42.678;23.312;2022-10-18T02:59:38;3.53;;;3.23;;
5807;SDS011;2930;42.678;23.312;2022-10-18T03:02:04;4.57;;;3.07;;
5807;SDS011;2930;42.678;23.312;2022-10-18T03:04:30;4.30;;;3.90;;
5807;SDS011;2930;42.678;23.312;2022-10-18T03:06:55;2.90;;;2.80;;
5807;SDS011;2930;42.678;23.312;2022-10-18T03:09:21;3.17;;;2.87;;
5807;SDS011;2930;42.678;23.312;2022-10-18T03:11:47;5.37;;;3.67;;
5807;SDS011;2930;42.678;23.312;2022-10-18T03:14:12;3.93;;;3.63;;
5807;SDS011;2930;42.678;23.312;2022-10-18T03:16:38;3.97;;;3.20;;
5807;SDS011;2930;42.678;23.312;2022-10-18T03:19:04;3.63;;;3.33;;
5807;SDS011;2930;42.678;23.312;2022-10-18T03:21:29;4.67;;;3.30;;
5807;SDS011;2930;42.678;23.312;2022-10-18T03:23:55;6.43;;;3.77;;
5807;SDS011;2930;42.678;23.312;2022-10-18T03:26:22;3.87;;;3.13;;
5807;SDS011;2930;42.678;23.312;2022-10-18T03:28:48;2.93;;;2.73;;
5807;SDS011;2930;42.678;23.312;2022-10-18T03:31:13;3.67;;;3.37;;
5807;SDS011;2930;42.678;23.312;2022-10-18T03:33:39;3.63;;;3.33;;
5807;SDS011;2930;42.678;23.312;2022-10-18T03:36:05;3.70;;;2.73;;
5807;SDS011;2930;42.678;23.312;2022-10-18T03:38:31;4.43;;;3.97;;
5807;SDS011;2930;42.678;23.312;2022-10-18T03:40:56;3.23;;;3.03;;
5807;SDS011;2930;42.678;23.312;2022-10-18T03:43:22;3.37;;;3.07;;
5807;SDS011;2930;42.678;23.312;2022-10-18T03:45:48;3.73;;;3.43;;
5807;SDS011;2930;42.678;23.312;2022-10-18T03:48:14;9.73;;;3.70;;
5807;SDS011;2930;42.678;23.312;2022-10-18T03:50:39;4.10;;;3.80;;
5807;SDS011;2930;42.678;23.312;2022-10-18T03:53:06;4.00;;;3.30;;
5807;SDS011;2930;42.678;23.312;2022-10-18T03:55:32;5.87;;;3.00;;
5807;SDS011;2930;42.678;23.312;2022-10-18T03:57:57;3.20;;;3.00;;
5807;SDS011;2930;42.678;23.312;2022-10-18T04:00:23;3.93;;;3.60;;
5807;SDS011;2930;42.678;23.312;2022-10-18T04:02:49;4.20;;;2.63;;
5807;SDS011;2930;42.678;23.312;2022-10-18T04:05:14;3.63;;;3.33;;
5807;SDS011;2930;42.678;23.312;2022-10-18T04:07:40;5.17;;;3.50;;
5807;SDS011;2930;42.678;23.312;2022-10-18T04:10:06;3.23;;;2.87;;
5807;SDS011;2930;42.678;23.312;2022-10-18T04:12:32;5.50;;;4.20;;
5807;SDS011;2930;42.678;23.312;2022-10-18T04:14:57;4.00;;;3.53;;
5807;SDS011;2930;42.678;23.312;2022-10-18T04:17:23;4.13;;;3.20;;
5807;SDS011;2930;42.678;23.312;2022-10-18T04:19:49;4.33;;;3.90;;
5807;SDS011;2930;42.678;23.312;2022-10-18T04:22:14;3.70;;;3.50;;
5807;SDS011;2930;42.678;23.312;2022-10-18T04:24:40;3.53;;;3.33;;
5807;SDS011;2930;42.678;23.312;2022-10-18T04:27:06;4.37;;;3.30;;
5807;SDS011;2930;42.678;23.312;2022-10-18T04:29:32;3.97;;;3.57;;
5807;SDS011;2930;42.678;23.312;2022-10-18T04:31:58;3.33;;;3.13;;
5807;SDS011;2930;42.678;23.312;2022-10-18T04:34:23;5.53;;;3.40;;
5807;SDS011;2930;42.678;23.312;2022-10-18T04:36:49;3.80;;;3.50;;
5807;SDS011;2930;42.678;23.312;2022-10-18T04:39:15;9.53;;;2.80;;
5807;SDS011;2930;42.678;23.312;2022-10-18T04:41:40;2.93;;;2.63;;
5807;SDS011;2930;42.678;23.312;2022-10-18T04:44:06;4.10;;;3.33;;
5807;SDS011;2930;42.678;23.312;2022-10-18T04:46:32;6.30;;;3.57;;
5807;SDS011;2930;42.678;23.312;2022-10-18T04:48:58;3.60;;;3.30;;
5807;SDS011;2930;42.678;23.312;2022-10-18T04:51:25;4.20;;;3.80;;
5807;SDS011;2930;42.678;23.312;2022-10-18T04:53:54;8.87;;;3.40;;
5807;SDS011;2930;42.678;23.312;2022-10-18T04:56:19;4.83;;;3.47;;
5807;SDS011;2930;42.678;23.312;2022-10-18T04:58:45;3.93;;;3.60;;
5807;SDS011;2930;42.678;23.312;2022-10-18T05:01:11;5.00;;;4.37;;
5807;SDS011;2930;42.678;23.312;2022-10-18T05:03:37;8.47;;;4.03;;
5807;SDS011;2930;42.678;23.312;2022-10-18T05:06:03;4.97;;;3.57;;
5807;SDS011;2930;42.678;23.312;2022-10-18T05:08:30;4.03;;;3.63;;
5807;SDS011;2930;42.678;23.312;2022-10-18T05:10:56;8.90;;;4.57;;
5807;SDS011;2930;42.678;23.312;2022-10-18T05:13:22;5.07;;;3.77;;
5807;SDS011;2930;42.678;23.312;2022-10-18T05:15:48;6.60;;;3.97;;
5807;SDS011;2930;42.678;23.312;2022-10-18T05:18:14;5.00;;;3.97;;
5807;SDS011;2930;42.678;23.312;2022-10-18T05:20:40;4.83;;;4.10;;
5807;SDS011;2930;42.678;23.312;2022-10-18T05:23:05;4.53;;;3.77;;
5807;SDS011;2930;42.678;23.312;2022-10-18T05:25:36;4.20;;;3.80;;
5807;SDS011;2930;42.678;23.312;2022-10-18T05:28:05;4.87;;;3.43;;
5807;SDS011;2930;42.678;23.312;2022-10-18T05:30:31;4.20;;;3.80;;
5807;SDS011;2930;42.678;23.312;2022-10-18T05:32:57;5.63;;;3.83;;
5807;SDS011;2930;42.678;23.312;2022-10-18T05:35:23;7.90;;;3.73;;
5807;SDS011;2930;42.678;23.312;2022-10-18T05:37:49;5.40;;;3.93;;
5807;SDS011;2930;42.678;23.312;2022-10-18T05:40:14;4.03;;;3.73;;
5807;SDS011;2930;42.678;23.312;2022-10-18T05:42:40;4.20;;;3.93;;
5807;SDS011;2930;42.678;23.312;2022-10-18T05:45:06;4.03;;;3.73;;
5807;SDS011;2930;42.678;23.312;2022-10-18T05:47:32;4.17;;;3.43;;
5807;SDS011;2930;42.678;23.312;2022-10-18T05:49:58;4.40;;;3.73;;
5807;SDS011;2930;42.678;23.312;2022-10-18T05:52:23;6.87;;;3.40;;
5807;SDS011;2930;42.678;23.312;2022-10-18T05:54:49;3.73;;;3.43;;
5807;SDS011;2930;42.678;23.312;2022-10-18T05:57:14;6.00;;;3.63;;
5807;SDS011;2930;42.678;23.312;2022-10-18T05:59:40;3.90;;;3.50;;
5807;SDS011;2930;42.678;23.312;2022-10-18T06:02:07;6.80;;;3.87;;
5807;SDS011;2930;42.678;23.312;2022-10-18T06:04:35;3.90;;;3.60;;
5807;SDS011;2930;42.678;23.312;2022-10-18T06:07:00;5.67;;;4.13;;
5807;SDS011;2930;42.678;23.312;2022-10-18T06:09:26;3.70;;;3.33;;
5807;SDS011;2930;42.678;23.312;2022-10-18T06:11:52;6.17;;;3.67;;
5807;SDS011;2930;42.678;23.312;2022-10-18T06:14:19;4.27;;;3.93;;
5807;SDS011;2930;42.678;23.312;2022-10-18T06:16:45;7.20;;;4.60;;
5807;SDS011;2930;42.678;23.312;2022-10-18T06:19:10;3.77;;;3.27;;
5807;SDS011;2930;42.678;23.312;2022-10-18T06:21:36;4.47;;;3.90;;
5807;SDS011;2930;42.678;23.312;2022-10-18T06:24:01;7.20;;;4.70;;
5807;SDS011;2930;42.678;23.312;2022-10-18T06:26:27;6.77;;;3.67;;
5807;SDS011;2930;42.678;23.312;2022-10-18T06:28:53;3.97;;;3.67;;
5807;SDS011;2930;42.678;23.312;2022-10-18T06:31:19;7.30;;;4.23;;
5807;SDS011;2930;42.678;23.312;2022-10-18T06:33:45;4.63;;;4.20;;
5807;SDS011;2930;42.678;23.312;2022-10-18T06:36:20;4.50;;;3.90;;
5807;SDS011;2930;42.678;23.312;2022-10-18T06:38:48;4.63;;;4.23;;
5807;SDS011;2930;42.678;23.312;2022-10-18T06:41:15;5.83;;;4.40;;
5807;SDS011;2930;42.678;23.312;2022-10-18T06:43:40;6.10;;;4.03;;
5807;SDS011;2930;42.678;23.312;2022-10-18T06:46:06;4.03;;;3.70;;
5807;SDS011;2930;42.678;23.312;2022-10-18T06:48:34;4.70;;;4.30;;
5807;SDS011;2930;42.678;23.312;2022-10-18T06:51:01;5.10;;;4.17;;
5807;SDS011;2930;42.678;23.312;2022-10-18T06:53:30;3.93;;;3.57;;
5807;SDS011;2930;42.678;23.312;2022-10-18T06:55:58;5.43;;;4.90;;
5807;SDS011;2930;42.678;23.312;2022-10-18T06:58:29;8.07;;;4.90;;
5807;SDS011;2930;42.678;23.312;2022-10-18T07:00:55;7.00;;;5.67;;
5807;SDS011;2930;42.678;23.312;2022-10-18T07:03:21;6.60;;;5.70;;
5807;SDS011;2930;42.678;23.312;2022-10-18T07:05:47;11.57;;;6.00;;
5807;SDS011;2930;42.678;23.312;2022-10-18T07:08:14;6.40;;;5.40;;
5807;SDS011;2930;42.678;23.312;2022-10-18T07:10:40;8.20;;;6.27;;
5807;SDS011;2930;42.678;23.312;2022-10-18T07:13:06;8.33;;;6.10;;
5807;SDS011;2930;42.678;23.312;2022-10-18T07:15:31;10.57;;;5.93;;
5807;SDS011;2930;42.678;23.312;2022-10-18T07:17:58;9.30;;;5.90;;
5807;SDS011;2930;42.678;23.312;2022-10-18T07:20:23;9.18;;;6.70;;
5807;SDS011;2930;42.678;23.312;2022-10-18T07:22:49;8.43;;;7.65;;
5807;SDS011;2930;42.678;23.312;2022-10-18T07:25:14;14.25;;;7.57;;
5807;SDS011;2930;42.678;23.312;2022-10-18T07:27:41;11.90;;;8.13;;
5807;SDS011;2930;42.678;23.312;2022-10-18T07:30:07;13.50;;;10.85;;
5807;SDS011;2930;42.678;23.312;2022-10-18T07:32:34;17.38;;;12.07;;
5807;SDS011;2930;42.678;23.312;2022-10-18T07:34:59;17.73;;;12.65;;
5807;SDS011;2930;42.678;23.312;2022-10-18T07:37:26;14.90;;;12.23;;
5807;SDS011;2930;42.678;23.312;2022-10-18T07:39:52;12.23;;;10.10;;
5807;SDS011;2930;42.678;23.312;2022-10-18T07:42:18;16.63;;;10.77;;
5807;SDS011;2930;42.678;23.312;2022-10-18T07:44:44;14.13;;;10.30;;
5807;SDS011;2930;42.678;23.312;2022-10-18T07:47:10;14.15;;;9.73;;
5807;SDS011;2930;42.678;23.312;2022-10-18T07:49:35;12.07;;;9.00;;
5807;SDS011;2930;42.678;23.312;2022-10-18T07:52:01;14.00;;;9.88;;
5807;SDS011;2930;42.678;23.312;2022-10-18T07:54:27;13.07;;;9.35;;
5807;SDS011;2930;42.678;23.312;2022-10-18T07:56:52;10.05;;;8.60;;
5807;SDS011;2930;42.678;23.312;2022-10-18T07:59:18;16.48;;;8.35;;
5807;SDS011;2930;42.678;23.312;2022-10-18T08:01:43;9.77;;;8.65;;
5807;SDS011;2930;42.678;23.312;2022-10-18T08:04:09;9.98;;;8.45;;
5807;SDS011;2930;42.678;23.312;2022-10-18T08:06:35;10.23;;;8.73;;
5807;SDS011;2930;42.678;23.312;2022-10-18T08:09:01;9.57;;;8.65;;
5807;SDS011;2930;42.678;23.312;2022-10-18T08:11:27;12.98;;;9.45;;
5807;SDS011;2930;42.678;23.312;2022-10-18T08:13:53;11.25;;;8.95;;
5807;SDS011;2930;42.678;23.312;2022-10-18T08:16:27;9.45;;;8.50;;
5807;SDS011;2930;42.678;23.312;2022-10-18T08:18:56;16.20;;;8.40;;
5807;SDS011;2930;42.678;23.312;2022-10-18T08:21:22;11.43;;;8.38;;
5807;SDS011;2930;42.678;23.312;2022-10-18T08:23:48;8.82;;;8.05;;
5807;SDS011;2930;42.678;23.312;2022-10-18T08:26:15;11.18;;;9.02;;
5807;SDS011;2930;42.678;23.312;2022-10-18T08:28:42;13.60;;;8.85;;
5807;SDS011;2930;42.678;23.312;2022-10-18T08:31:09;9.98;;;8.38;;
5807;SDS011;2930;42.678;23.312;2022-10-18T08:33:36;11.40;;;8.95;;
5807;SDS011;2930;42.678;23.312;2022-10-18T08:36:04;9.88;;;8.98;;
5807;SDS011;2930;42.678;23.312;2022-10-18T08:38:32;10.93;;;9.32;;
5807;SDS011;2930;42.678;23.312;2022-10-18T08:43:54;9.43;;;8.48;;
5807;SDS011;2930;42.678;23.312;2022-10-18T08:46:48;9.43;;;8.63;;
5807;SDS011;2930;42.678;23.312;2022-10-18T08:52:10;11.95;;;8.98;;
5807;SDS011;2930;42.678;23.312;2022-10-18T08:57:47;14.95;;;9.27;;
5807;SDS011;2930;42.678;23.312;2022-10-18T09:00:14;9.02;;;8.18;;
5807;SDS011;2930;42.678;23.312;2022-10-18T09:06:03;10.20;;;8.55;;
5807;SDS011;2930;42.678;23.312;2022-10-18T09:17:37;9.85;;;7.43;;
5807;SDS011;2930;42.678;23.312;2022-10-18T09:23:21;8.50;;;7.60;;
5807;SDS011;2930;42.678;23.312;2022-10-18T09:26:13;7.78;;;7.10;;
5807;SDS011;2930;42.678;23.312;2022-10-18T09:34:37;13.52;;;7.82;;
5807;SDS011;2930;42.678;23.312;2022-10-18T09:37:12;11.88;;;8.85;;
5807;SDS011;2930;42.678;23.312;2022-10-18T09:39:42;10.88;;;8.27;;
5807;SDS011;2930;42.678;23.312;2022-10-18T09:42:14;8.48;;;7.68;;
5807;SDS011;2930;42.678;23.312;2022-10-18T09:44:54;7.75;;;7.13;;
5807;SDS011;2930;42.678;23.312;2022-10-18T09:47:37;7.90;;;7.05;;
5807;SDS011;2930;42.678;23.312;2022-10-18T09:50:21;10.52;;;8.18;;
5807;SDS011;2930;42.678;23.312;2022-10-18T09:52:55;11.70;;;8.27;;
5807;SDS011;2930;42.678;23.312;2022-10-18T09:55:57;12.05;;;8.00;;
5807;SDS011;2930;42.678;23.312;2022-10-18T09:58:33;9.50;;;8.02;;
5807;SDS011;2930;42.678;23.312;2022-10-18T10:01:11;9.43;;;8.50;;
5807;SDS011;2930;42.678;23.312;2022-10-18T10:03:40;9.30;;;7.65;;
5807;SDS011;2930;42.678;23.312;2022-10-18T10:08:45;8.20;;;6.75;;
5807;SDS011;2930;42.678;23.312;2022-10-18T10:11:26;7.38;;;6.72;;
5807;SDS011;2930;42.678;23.312;2022-10-18T10:13:56;8.43;;;6.28;;
5807;SDS011;2930;42.678;23.312;2022-10-18T10:16:31;7.03;;;6.45;;
5807;SDS011;2930;42.678;23.312;2022-10-18T10:18:56;12.20;;;6.30;;
5807;SDS011;2930;42.678;23.312;2022-10-18T10:21:22;6.90;;;6.20;;
5807;SDS011;2930;42.678;23.312;2022-10-18T10:23:52;6.25;;;5.85;;
5807;SDS011;2930;42.678;23.312;2022-10-18T10:26:40;5.18;;;4.82;;
5807;SDS011;2930;42.678;23.312;2022-10-18T10:32:10;4.18;;;4.00;;
5807;SDS011;2930;42.678;23.312;2022-10-18T10:34:41;4.88;;;4.57;;
5807;SDS011;2930;42.678;23.312;2022-10-18T10:42:31;5.50;;;4.57;;
5807;SDS011;2930;42.678;23.312;2022-10-18T10:45:00;4.30;;;3.95;;
5807;SDS011;2930;42.678;23.312;2022-10-18T10:47:27;5.78;;;3.72;;
5807;SDS011;2930;42.678;23.312;2022-10-18T10:49:55;4.05;;;3.83;;
5807;SDS011;2930;42.678;23.312;2022-10-18T10:52:22;5.88;;;3.80;;
5807;SDS011;2930;42.678;23.312;2022-10-18T10:54:53;4.00;;;3.20;;
5807;SDS011;2930;42.678;23.312;2022-10-18T10:57:22;3.20;;;3.10;;
5807;SDS011;2930;42.678;23.312;2022-10-18T10:59:54;4.15;;;3.15;;
5807;SDS011;2930;42.678;23.312;2022-10-18T11:02:22;4.70;;;3.53;;
5807;SDS011;2930;42.678;23.312;2022-10-18T11:04:54;3.47;;;3.20;;
5807;SDS011;2930;42.678;23.312;2022-10-18T11:12:48;3.03;;;2.67;;
5807;SDS011;2930;42.678;23.312;2022-10-18T11:15:37;3.10;;;2.58;;
5807;SDS011;2930;42.678;23.312;2022-10-18T11:20:46;3.13;;;2.25;;
5807;SDS011;2930;42.678;23.312;2022-10-18T11:23:33;2.05;;;2.05;;
5807;SDS011;2930;42.678;23.312;2022-10-18T11:40:02;1.30;;;1.30;;
5807;SDS011;2930;42.678;23.312;2022-10-18T11:42:37;1.00;;;0.95;;
5807;SDS011;2930;42.678;23.312;2022-10-18T11:56:21;0.70;;;0.70;;
5807;SDS011;2930;42.678;23.312;2022-10-18T12:01:55;1.90;;;0.60;;
5807;SDS011;2930;42.678;23.312;2022-10-18T12:04:33;6.90;;;0.80;;
5807;SDS011;2930;42.678;23.312;2022-10-18T12:07:03;1.52;;;0.70;;
5807;SDS011;2930;42.678;23.312;2022-10-18T12:09:38;2.20;;;0.80;;
5807;SDS011;2930;42.678;23.312;2022-10-18T12:12:18;1.20;;;1.10;;
5807;SDS011;2930;42.678;23.312;2022-10-18T12:14:53;0.95;;;0.60;;
5807;SDS011;2930;42.678;23.312;2022-10-18T12:17:34;0.60;;;0.60;;
5807;SDS011;2930;42.678;23.312;2022-10-18T12:22:52;0.73;;;0.70;;
5807;SDS011;2930;42.678;23.312;2022-10-18T12:25:19;0.60;;;0.60;;
5807;SDS011;2930;42.678;23.312;2022-10-18T12:27:47;0.68;;;0.68;;
5807;SDS011;2930;42.678;23.312;2022-10-18T12:30:25;2.10;;;0.73;;
5807;SDS011;2930;42.678;23.312;2022-10-18T12:33:09;0.60;;;0.60;;
5807;SDS011;2930;42.678;23.312;2022-10-18T12:38:35;0.60;;;0.60;;
5807;SDS011;2930;42.678;23.312;2022-10-18T12:41:05;0.85;;;0.60;;
5807;SDS011;2930;42.678;23.312;2022-10-18T12:43:31;0.82;;;0.73;;
5807;SDS011;2930;42.678;23.312;2022-10-18T12:46:01;0.55;;;0.55;;
5807;SDS011;2930;42.678;23.312;2022-10-18T12:51:12;1.10;;;0.50;;
5807;SDS011;2930;42.678;23.312;2022-10-18T12:53:44;0.50;;;0.50;;
5807;SDS011;2930;42.678;23.312;2022-10-18T12:56:40;0.50;;;0.50;;
5807;SDS011;2930;42.678;23.312;2022-10-18T13:09:28;3.20;;;0.70;;
5807;SDS011;2930;42.678;23.312;2022-10-18T13:11:55;0.50;;;0.50;;
5807;SDS011;2930;42.678;23.312;2022-10-18T13:20:22;0.77;;;0.77;;
5807;SDS011;2930;42.678;23.312;2022-10-18T13:39:25;0.80;;;0.80;;
5807;SDS011;2930;42.678;23.312;2022-10-18T13:44:28;0.40;;;0.40;;
5807;SDS011;2930;42.678;23.312;2022-10-18T14:03:33;0.85;;;0.50;;
5807;SDS011;2930;42.678;23.312;2022-10-18T14:08:47;0.50;;;0.50;;
5807;SDS011;2930;42.678;23.312;2022-10-18T14:14:27;0.40;;;0.40;;
5807;SDS011;2930;42.678;23.312;2022-10-18T14:25:31;0.50;;;0.50;;
5807;SDS011;2930;42.678;23.312;2022-10-18T14:28:03;0.63;;;0.63;;
5807;SDS011;2930;42.678;23.312;2022-10-18T14:30:55;0.82;;;0.52;;
5807;SDS011;2930;42.678;23.312;2022-10-18T14:36:05;3.13;;;0.70;;
5807;SDS011;2930;42.678;23.312;2022-10-18T14:38:36;0.50;;;0.50;;
5807;SDS011;2930;42.678;23.312;2022-10-18T14:41:13;0.43;;;0.43;;
5807;SDS011;2930;42.678;23.312;2022-10-18T14:43:40;1.27;;;0.60;;
5807;SDS011;2930;42.678;23.312;2022-10-18T14:46:15;0.70;;;0.70;;
5807;SDS011;2930;42.678;23.312;2022-10-18T14:48:51;0.50;;;0.50;;
5807;SDS011;2930;42.678;23.312;2022-10-18T14:51:18;1.20;;;0.70;;
5807;SDS011;2930;42.678;23.312;2022-10-18T14:53:44;2.47;;;0.60;;
5807;SDS011;2930;42.678;23.312;2022-10-18T14:56:30;0.80;;;0.80;;
5807;SDS011;2930;42.678;23.312;2022-10-18T14:59:02;0.68;;;0.68;;
5807;SDS011;2930;42.678;23.312;2022-10-18T15:01:34;0.93;;;0.93;;
5807;SDS011;2930;42.678;23.312;2022-10-18T15:04:08;3.53;;;0.65;;
5807;SDS011;2930;42.678;23.312;2022-10-18T15:06:35;1.02;;;0.98;;
5807;SDS011;2930;42.678;23.312;2022-10-18T15:09:07;2.65;;;2.47;;
5807;SDS011;2930;42.678;23.312;2022-10-18T15:11:35;2.85;;;2.63;;
5807;SDS011;2930;42.678;23.312;2022-10-18T15:14:03;3.25;;;2.30;;
5807;SDS011;2930;42.678;23.312;2022-10-18T15:16:33;1.85;;;1.75;;
5807;SDS011;2930;42.678;23.312;2022-10-18T15:22:02;1.02;;;1.02;;
5807;SDS011;2930;42.678;23.312;2022-10-18T15:27:23;2.58;;;1.48;;
5807;SDS011;2930;42.678;23.312;2022-10-18T15:29:53;2.38;;;1.52;;
5807;SDS011;2930;42.678;23.312;2022-10-18T15:32:28;4.93;;;1.50;;
5807;SDS011;2930;42.678;23.312;2022-10-18T15:35:16;1.35;;;1.25;;
5807;SDS011;2930;42.678;23.312;2022-10-18T15:37:47;3.28;;;2.03;;
5807;SDS011;2930;42.678;23.312;2022-10-18T15:42:51;3.90;;;3.28;;
5807;SDS011;2930;42.678;23.312;2022-10-18T15:50:53;3.03;;;2.78;;
5807;SDS011;2930;42.678;23.312;2022-10-18T15:55:59;2.83;;;2.67;;
5807;SDS011;2930;42.678;23.312;2022-10-18T16:01:03;6.53;;;2.10;;
5807;SDS011;2930;42.678;23.312;2022-10-18T16:03:34;5.28;;;1.85;;
5807;SDS011;2930;42.678;23.312;2022-10-18T16:06:04;1.80;;;1.70;;
5807;SDS011;2930;42.678;23.312;2022-10-18T16:08:34;1.90;;;1.80;;
5807;SDS011;2930;42.678;23.312;2022-10-18T16:11:05;4.45;;;2.22;;
5807;SDS011;2930;42.678;23.312;2022-10-18T16:13:32;1.98;;;1.88;;
5807;SDS011;2930;42.678;23.312;2022-10-18T16:15:58;6.13;;;1.85;;
5807;SDS011;2930;42.678;23.312;2022-10-18T16:18:24;1.85;;;1.70;;
5807;SDS011;2930;42.678;23.312;2022-10-18T16:20:51;4.30;;;2.28;;
5807;SDS011;2930;42.678;23.312;2022-10-18T16:23:18;5.30;;;2.42;;
5807;SDS011;2930;42.678;23.312;2022-10-18T16:25:49;2.33;;;2.22;;
5807;SDS011;2930;42.678;23.312;2022-10-18T16:28:16;3.22;;;2.17;;
5807;SDS011;2930;42.678;23.312;2022-10-18T16:30:46;2.80;;;2.55;;
5807;SDS011;2930;42.678;23.312;2022-10-18T16:33:20;4.72;;;2.38;;
5807;SDS011;2930;42.678;23.312;2022-10-18T16:35:46;3.80;;;1.95;;
5807;SDS011;2930;42.678;23.312;2022-10-18T16:38:32;2.83;;;2.60;;
5807;SDS011;2930;42.678;23.312;2022-10-18T16:41:00;5.78;;;2.97;;
5807;SDS011;2930;42.678;23.312;2022-10-18T16:43:29;2.85;;;2.70;;
5807;SDS011;2930;42.678;23.312;2022-10-18T16:45:56;6.15;;;3.20;;
5807;SDS011;2930;42.678;23.312;2022-10-18T16:48:22;3.33;;;2.95;;
5807;SDS011;2930;42.678;23.312;2022-10-18T16:50:49;4.22;;;3.72;;
5807;SDS011;2930;42.678;23.312;2022-10-18T16:53:15;3.47;;;3.22;;
5807;SDS011;2930;42.678;23.312;2022-10-18T16:55:41;3.22;;;2.95;;
5807;SDS011;2930;42.678;23.312;2022-10-18T16:58:12;3.35;;;3.17;;
5807;SDS011;2930;42.678;23.312;2022-10-18T17:00:41;5.18;;;2.90;;
5807;SDS011;2930;42.678;23.312;2022-10-18T17:03:07;7.88;;;3.20;;
5807;SDS011;2930;42.678;23.312;2022-10-18T17:05:33;4.03;;;3.33;;
5807;SDS011;2930;42.678;23.312;2022-10-18T17:07:59;3.20;;;2.95;;
5807;SDS011;2930;42.678;23.312;2022-10-18T17:10:25;6.00;;;3.78;;
5807;SDS011;2930;42.678;23.312;2022-10-18T17:12:51;5.50;;;3.97;;
5807;SDS011;2930;42.678;23.312;2022-10-18T17:15:18;4.07;;;3.78;;
5807;SDS011;2930;42.678;23.312;2022-10-18T17:17:44;3.70;;;3.45;;
5807;SDS011;2930;42.678;23.312;2022-10-18T17:20:22;3.30;;;3.03;;
5807;SDS011;2930;42.678;23.312;2022-10-18T17:22:50;2.78;;;2.63;;
5807;SDS011;2930;42.678;23.312;2022-10-18T17:25:16;2.97;;;2.70;;
5807;SDS011;2930;42.678;23.312;2022-10-18T17:27:43;5.88;;;3.08;;
5807;SDS011;2930;42.678;23.312;2022-10-18T17:30:09;3.40;;;3.10;;
5807;SDS011;2930;42.678;23.312;2022-10-18T17:32:36;13.93;;;3.25;;
5807;SDS011;2930;42.678;23.312;2022-10-18T17:35:02;3.40;;;3.30;;
5807;SDS011;2930;42.678;23.312;2022-10-18T17:37:28;5.60;;;3.47;;
5807;SDS011;2930;42.678;23.312;2022-10-18T17:39:54;4.15;;;3.75;;
5807;SDS011;2930;42.678;23.312;2022-10-18T17:42:20;10.65;;;3.90;;
5807;SDS011;2930;42.678;23.312;2022-10-18T17:44:46;4.78;;;3.97;;
5807;SDS011;2930;42.678;23.312;2022-10-18T17:47:12;6.30;;;3.38;;
5807;SDS011;2930;42.678;23.312;2022-10-18T17:49:38;7.25;;;5.57;;
5807;SDS011;2930;42.678;23.312;2022-10-18T17:52:04;6.07;;;5.35;;
5807;SDS011;2930;42.678;23.312;2022-10-18T17:54:30;12.70;;;6.72;;
5807;SDS011;2930;42.678;23.312;2022-10-18T17:56:55;12.13;;;7.90;;
5807;SDS011;2930;42.678;23.312;2022-10-18T17:59:21;14.35;;;7.78;;
5807;SDS011;2930;42.678;23.312;2022-10-18T18:01:47;13.98;;;8.75;;
5807;SDS011;2930;42.678;23.312;2022-10-18T18:04:13;12.05;;;8.00;;
5807;SDS011;2930;42.678;23.312;2022-10-18T18:06:41;13.25;;;7.50;;
5807;SDS011;2930;42.678;23.312;2022-10-18T18:09:08;13.23;;;6.85;;
5807;SDS011;2930;42.678;23.312;2022-10-18T18:11:37;14.07;;;7.80;;
5807;SDS011;2930;42.678;23.312;2022-10-18T18:14:03;12.25;;;7.07;;
5807;SDS011;2930;42.678;23.312;2022-10-18T18:16:33;18.33;;;6.85;;
5807;SDS011;2930;42.678;23.312;2022-10-18T18:19:03;8.13;;;6.00;;
5807;SDS011;2930;42.678;23.312;2022-10-18T18:21:30;9.27;;;5.90;;
5807;SDS011;2930;42.678;23.312;2022-10-18T18:23:56;10.30;;;5.03;;
5807;SDS011;2930;42.678;23.312;2022-10-18T18:26:21;14.95;;;6.20;;
5807;SDS011;2930;42.678;23.312;2022-10-18T18:28:47;11.43;;;6.68;;
5807;SDS011;2930;42.678;23.312;2022-10-18T18:31:14;14.70;;;7.60;;
5807;SDS011;2930;42.678;23.312;2022-10-18T18:33:42;12.13;;;7.15;;
5807;SDS011;2930;42.678;23.312;2022-10-18T18:36:08;11.80;;;7.35;;
5807;SDS011;2930;42.678;23.312;2022-10-18T18:38:35;16.08;;;7.47;;
5807;SDS011;2930;42.678;23.312;2022-10-18T18:41:07;12.63;;;7.15;;